Terminal Aerodrome Forecast
Issued by NWS

Home | Current Version | Previous Version | Text Only | Print | Product List | Glossary On
Versions: 1 2 3 4 5 6 7 8 9 10 11 12 13 14
000
FTUS46 KLOX 290004 AAA
TAFPMD
TAF AMD
KPMD 290004Z 2900/2924 24010KT P6SM SKC
     FM290600 17004KT P6SM SKC
     FM291400 VRB06KT P6SM SKC
     FM291800 07008KT P6SM FEW080 SCT140 BKN200
     FM292300 20012KT P6SM SCT080 BKN140=

USA.gov is the U.S. government's official web portal to all federal, state and local government web resources and services.